Time;durP1;ratioP1;P1;durP2;ratioP2;P2;SDS_P1;SDS_P2;PMS_P1;PMS_P2;Temp;Humidity;BMP_temperature;BMP_pressure;BME280_temperature;BME280_humidity;BME280_pressure;Samples;Min_cycle;Max_cycle;Signal;HPM_P1;HPM_P2
2021/06/14 00:00:13;;;;;;;;;;;14.60;99.90;;;;;;5133779;27;19908;-62
2021/06/14 00:02:39;;;;;;;;;;;14.60;99.90;;;;;;5116847;27;20268;-62
2021/06/14 00:05:05;;;;;;;;;;;14.60;99.90;;;;;;5134396;27;19915;-61
2021/06/14 00:07:31;;;;;;;;;;;14.60;99.90;;;;;;5135000;27;19907;-62
2021/06/14 00:09:57;;;;;;;;;;;14.60;99.90;;;;;;5134320;27;20283;-62
2021/06/14 00:12:23;;;;;;;;;;;14.60;99.90;;;;;;5134250;27;19911;-62
2021/06/14 00:14:49;;;;;;;;;;;14.60;99.90;;;;;;5134127;27;19907;-62
2021/06/14 00:17:16;;;;;;;;;;;14.60;99.90;;;;;;5134055;27;19919;-62
2021/06/14 00:19:42;;;;;;;;;;;14.60;99.90;;;;;;5133614;27;19908;-63
2021/06/14 00:22:07;;;;;;;;;;;14.60;99.90;;;;;;5133381;27;20390;-62
2021/06/14 00:24:33;;;;;;;;;;;14.60;99.90;;;;;;5134379;27;19911;-62
2021/06/14 00:26:59;;;;;;;;;;;14.60;99.90;;;;;;5134338;27;19911;-62
2021/06/14 00:29:25;;;;;;;;;;;14.60;99.90;;;;;;5115296;27;20352;-61
2021/06/14 00:31:51;;;;;;;;;;;14.50;99.90;;;;;;5134316;27;19919;-60
2021/06/14 00:34:17;;;;;;;;;;;14.50;99.90;;;;;;5133156;27;19919;-62
2021/06/14 00:36:43;;;;;;;;;;;14.60;99.90;;;;;;5134431;27;19911;-62
2021/06/14 00:39:09;;;;;;;;;;;14.60;99.90;;;;;;5133840;27;19915;-62
2021/06/14 00:41:35;;;;;;;;;;;14.60;99.90;;;;;;5114814;27;19915;-62
2021/06/14 00:44:01;;;;;;;;;;;14.60;99.90;;;;;;5133088;27;19911;-61
2021/06/14 00:46:26;;;;;;;;;;;14.60;99.90;;;;;;5132467;27;20281;-61
2021/06/14 00:48:52;;;;;;;;;;;14.60;99.90;;;;;;5133471;27;19915;-62
2021/06/14 00:51:18;;;;;;;;;;;14.60;99.90;;;;;;5133403;27;19926;-62
2021/06/14 00:53:55;;;;;;;;;;;14.60;99.90;;;;;;5134005;27;19919;-61
2021/06/14 00:56:21;;;;;;;;;;;14.50;99.90;;;;;;5132192;27;20000;-61
2021/06/14 00:58:47;;;;;;;;;;;14.50;99.90;;;;;;5134376;27;20378;-61
2021/06/14 01:01:13;;;;;;;;;;;14.50;99.90;;;;;;5133339;27;19914;-62
2021/06/14 01:03:39;;;;;;;;;;;14.50;99.90;;;;;;5133889;27;19919;-62
2021/06/14 01:06:05;;;;;;;;;;;14.50;99.90;;;;;;5133511;27;20016;-62
2021/06/14 01:08:31;;;;;;;;;;;14.50;99.90;;;;;;5133282;27;19911;-62
2021/06/14 01:10:58;;;;;;;;;;;14.50;99.90;;;;;;5133267;27;19927;-62
2021/06/14 01:13:31;;;;;;;;;;;14.50;99.90;;;;;;5114801;27;20351;-62
2021/06/14 01:15:59;;;;;;;;;;;14.50;99.90;;;;;;5133131;27;19907;-62
2021/06/14 01:18:29;;;;;;;;;;;14.50;99.90;;;;;;5132975;27;20279;-62
2021/06/14 01:20:59;;;;;;;;;;;14.50;99.90;;;;;;5133798;27;19921;-62
2021/06/14 01:23:41;;;;;;;;;;;14.50;99.90;;;;;;5136575;27;19915;-62
2021/06/14 01:26:07;;;;;;;;;;;14.50;99.90;;;;;;5114724;28;19907;-62
2021/06/14 01:28:33;;;;;;;;;;;14.50;99.90;;;;;;5132975;28;20318;-62
2021/06/14 01:30:59;;;;;;;;;;;14.50;99.90;;;;;;5115088;28;19919;-62
2021/06/14 01:33:26;;;;;;;;;;;14.50;99.90;;;;;;5133023;28;19966;-62
2021/06/14 01:36:18;;;;;;;;;;;14.50;99.90;;;;;;5114540;28;19914;-62
2021/06/14 01:38:44;;;;;;;;;;;14.50;99.90;;;;;;5127946;27;19907;-61
2021/06/14 01:41:10;;;;;;;;;;;14.50;99.90;;;;;;5114664;28;20279;-62
2021/06/14 01:43:37;;;;;;;;;;;14.40;99.90;;;;;;5115259;28;19907;-62
2021/06/14 01:46:06;;;;;;;;;;;14.50;99.90;;;;;;5114351;28;19915;-62
2021/06/14 01:48:33;;;;;;;;;;;14.50;99.90;;;;;;5133227;28;20386;-63
2021/06/14 01:50:59;;;;;;;;;;;14.50;99.90;;;;;;5132849;28;20287;-61
2021/06/14 01:53:25;;;;;;;;;;;14.40;99.90;;;;;;5132056;28;19908;-61
2021/06/14 01:55:51;;;;;;;;;;;14.30;99.90;;;;;;5114586;28;20360;-62
2021/06/14 01:58:17;;;;;;;;;;;14.30;99.90;;;;;;5114752;28;19915;-62
2021/06/14 02:00:43;;;;;;;;;;;14.30;99.90;;;;;;5133333;28;19947;-62
2021/06/14 02:03:09;;;;;;;;;;;14.40;99.90;;;;;;5114930;28;19922;-62
2021/06/14 02:05:35;;;;;;;;;;;14.30;99.90;;;;;;5132686;28;19908;-62
2021/06/14 02:08:01;;;;;;;;;;;14.30;99.90;;;;;;5115274;28;19904;-62
2021/06/14 02:10:27;;;;;;;;;;;14.30;99.90;;;;;;5131399;28;20382;-62
2021/06/14 02:12:53;;;;;;;;;;;14.30;99.90;;;;;;5111261;28;19920;-62
2021/06/14 02:15:19;;;;;;;;;;;14.30;99.90;;;;;;5114278;28;19911;-62
2021/06/14 02:17:45;;;;;;;;;;;14.30;99.90;;;;;;5133024;28;20287;-62
2021/06/14 02:20:11;;;;;;;;;;;14.30;99.90;;;;;;5114749;28;19907;-62
2021/06/14 02:22:37;;;;;;;;;;;14.30;99.90;;;;;;5132712;28;19907;-62
2021/06/14 02:25:04;;;;;;;;;;;14.30;99.90;;;;;;5114104;28;20256;-62
2021/06/14 02:27:30;;;;;;;;;;;14.30;99.90;;;;;;5132437;28;19908;-62
2021/06/14 02:29:55;;;;;;;;;;;14.30;99.90;;;;;;5132330;28;19954;-62
2021/06/14 02:32:21;;;;;;;;;;;14.30;99.90;;;;;;5131940;28;20365;-62
2021/06/14 02:34:47;;;;;;;;;;;14.30;99.90;;;;;;5113039;28;19907;-63
2021/06/14 02:37:13;;;;;;;;;;;14.40;99.90;;;;;;5129084;28;19907;-61
2021/06/14 02:39:39;;;;;;;;;;;14.30;99.90;;;;;;5132991;28;19914;-62
2021/06/14 02:42:05;;;;;;;;;;;14.40;99.90;;;;;;5134033;27;19946;-61
2021/06/14 02:44:31;;;;;;;;;;;14.30;99.90;;;;;;5117100;27;19907;-62
2021/06/14 02:47:08;;;;;;;;;;;14.40;99.90;;;;;;5118375;27;19907;-62
2021/06/14 02:49:34;;;;;;;;;;;14.40;99.90;;;;;;5136229;27;19908;-62
2021/06/14 02:52:00;;;;;;;;;;;14.40;99.90;;;;;;5136093;27;19926;-62
2021/06/14 02:54:27;;;;;;;;;;;14.40;99.90;;;;;;5135457;27;19911;-62
2021/06/14 02:56:54;;;;;;;;;;;14.40;99.90;;;;;;5117907;27;19907;-62
2021/06/14 02:59:20;;;;;;;;;;;14.40;99.90;;;;;;5117477;27;20267;-62
2021/06/14 03:01:46;;;;;;;;;;;14.40;99.90;;;;;;5117362;27;19947;-61
2021/06/14 03:04:12;;;;;;;;;;;14.40;99.90;;;;;;5117581;27;19908;-62
2021/06/14 03:06:38;;;;;;;;;;;14.40;99.90;;;;;;5136049;27;19912;-62
2021/06/14 03:09:05;;;;;;;;;;;14.40;99.90;;;;;;5117831;27;19914;-62
2021/06/14 03:11:31;;;;;;;;;;;14.40;99.90;;;;;;5135393;27;19915;-61
2021/06/14 03:13:57;;;;;;;;;;;14.50;99.90;;;;;;5135914;27;19922;-61
2021/06/14 03:16:24;;;;;;;;;;;14.50;99.90;;;;;;5134738;27;19959;-61
2021/06/14 03:18:50;;;;;;;;;;;14.50;99.90;;;;;;5117188;27;20367;-61
2021/06/14 03:21:16;;;;;;;;;;;14.50;99.90;;;;;;5093959;27;19914;-62
2021/06/14 03:23:42;;;;;;;;;;;14.50;99.90;;;;;;5134998;27;19911;-62
2021/06/14 03:26:11;;;;;;;;;;;14.50;99.90;;;;;;5135389;27;19914;-61
2021/06/14 03:28:41;;;;;;;;;;;14.50;99.90;;;;;;5128876;27;20363;-61
2021/06/14 03:31:07;;;;;;;;;;;14.50;99.90;;;;;;5117084;27;19915;-61
2021/06/14 03:33:33;;;;;;;;;;;14.50;99.90;;;;;;5134906;27;19919;-61
2021/06/14 03:35:59;;;;;;;;;;;14.50;99.90;;;;;;5112140;28;19907;-61
2021/06/14 03:38:25;;;;;;;;;;;14.50;99.90;;;;;;5134829;27;19911;-61
2021/06/14 03:40:51;;;;;;;;;;;14.50;99.90;;;;;;5115838;27;20391;-61
2021/06/14 03:43:17;;;;;;;;;;;14.50;99.90;;;;;;5117096;27;19914;-61
2021/06/14 03:45:43;;;;;;;;;;;14.50;99.90;;;;;;5098982;27;19908;-61
2021/06/14 03:48:09;;;;;;;;;;;14.50;99.90;;;;;;5116747;27;20004;-61
2021/06/14 03:50:35;;;;;;;;;;;14.50;99.90;;;;;;5135032;27;19966;-61
2021/06/14 03:53:02;;;;;;;;;;;14.40;99.90;;;;;;5133645;27;19926;-61
2021/06/14 03:55:28;;;;;;;;;;;14.50;99.90;;;;;;5134979;27;19915;-61
2021/06/14 03:57:54;;;;;;;;;;;14.50;99.90;;;;;;5135037;27;19908;-62
2021/06/14 04:00:20;;;;;;;;;;;14.50;99.90;;;;;;5134599;27;19918;-61
2021/06/14 04:02:46;;;;;;;;;;;14.50;99.90;;;;;;5135299;27;19918;-62
2021/06/14 04:05:12;;;;;;;;;;;14.50;99.90;;;;;;5141888;27;19906;-61
2021/06/14 04:07:38;;;;;;;;;;;14.50;99.90;;;;;;5127039;27;19926;-61
2021/06/14 04:10:04;;;;;;;;;;;14.50;99.90;;;;;;5138398;27;19912;-62
2021/06/14 04:12:30;;;;;;;;;;;14.50;99.90;;;;;;5136274;27;19915;-62
2021/06/14 04:14:56;;;;;;;;;;;14.60;99.90;;;;;;5123780;27;20279;-62
2021/06/14 04:17:22;;;;;;;;;;;14.60;99.90;;;;;;5143892;27;19907;-62
2021/06/14 04:19:48;;;;;;;;;;;14.60;99.90;;;;;;5142993;27;19910;-61
2021/06/14 04:22:14;;;;;;;;;;;14.60;99.90;;;;;;5135098;27;19907;-62
2021/06/14 04:24:40;;;;;;;;;;;14.50;99.90;;;;;;5134052;27;20259;-63
2021/06/14 04:27:06;;;;;;;;;;;14.60;99.90;;;;;;5135126;27;20375;-63
2021/06/14 04:29:32;;;;;;;;;;;14.60;99.90;;;;;;5134796;27;19910;-61
2021/06/14 04:31:58;;;;;;;;;;;14.60;99.90;;;;;;5115663;27;19951;-61
2021/06/14 04:34:25;;;;;;;;;;;14.70;99.90;;;;;;5134744;27;19915;-61
2021/06/14 04:36:50;;;;;;;;;;;14.70;99.90;;;;;;5134610;27;19908;-61
2021/06/14 04:39:16;;;;;;;;;;;14.70;99.90;;;;;;5134062;27;19918;-61
2021/06/14 04:41:42;;;;;;;;;;;14.70;99.90;;;;;;5134433;27;20282;-61
2021/06/14 04:44:08;;;;;;;;;;;14.70;99.90;;;;;;5134172;27;20355;-61
2021/06/14 04:46:34;;;;;;;;;;;14.80;99.90;;;;;;5134522;27;19907;-61
2021/06/14 04:49:00;;;;;;;;;;;14.80;99.90;;;;;;5134812;27;19911;-61
2021/06/14 04:51:26;;;;;;;;;;;14.90;99.90;;;;;;5134375;27;20002;-62
2021/06/14 04:53:52;;;;;;;;;;;14.90;99.90;;;;;;5134689;27;19907;-61
2021/06/14 04:56:18;;;;;;;11.60;4.80;;;14.90;99.90;;;;;;5133646;27;20378;-61
2021/06/14 04:58:44;;;;;;;10.98;4.95;;;15.00;99.90;;;;;;5132794;27;20472;-62
2021/06/14 05:01:10;;;;;;;11.30;4.72;;;15.00;99.90;;;;;;5142725;27;20187;-62
2021/06/14 05:03:36;;;;;;;11.02;4.40;;;15.00;99.90;;;;;;5144229;27;20178;-62
2021/06/14 05:06:02;;;;;;;10.68;4.45;;;15.00;99.90;;;;;;5141711;27;20182;-62
2021/06/14 05:08:28;;;;;;;7.93;4.20;;;15.00;99.90;;;;;;5144604;27;20171;-62
2021/06/14 05:10:54;;;;;;;8.68;4.45;;;15.10;99.90;;;;;;5142992;27;20179;-62
2021/06/14 05:13:21;;;;;;;9.68;4.20;;;15.10;99.90;;;;;;5154603;27;20171;-63
2021/06/14 05:15:47;;;;;;;12.57;4.63;;;15.10;99.90;;;;;;5132706;27;20178;-62
2021/06/14 05:18:13;;;;;;;6.72;3.97;;;15.20;99.90;;;;;;5138223;27;20184;-62
2021/06/14 05:20:39;;;;;;;8.25;3.75;;;15.20;99.90;;;;;;5125054;27;20648;-61
2021/06/14 05:23:05;;;;;;;9.65;4.32;;;15.30;99.90;;;;;;5132671;27;20175;-62
2021/06/14 05:25:32;;;;;;;12.10;3.95;;;15.30;99.90;;;;;;5133025;27;20560;-62
2021/06/14 05:27:58;;;;;;;7.03;4.70;;;15.40;99.90;;;;;;5133086;27;20175;-62
2021/06/14 05:30:24;;;;;;;9.77;4.32;;;15.40;99.90;;;;;;5132660;27;20168;-62
2021/06/14 05:32:50;;;;;;;8.20;4.07;;;15.50;99.90;;;;;;5134013;27;20214;-62
2021/06/14 05:35:16;;;;;;;8.63;4.43;;;15.40;99.90;;;;;;5128962;27;20211;-62
2021/06/14 05:37:42;;;;;;;10.77;3.65;;;15.40;99.90;;;;;;5114836;28;20175;-62
2021/06/14 05:40:09;;;;;;;10.10;4.15;;;15.40;99.90;;;;;;5132890;28;20585;-61
2021/06/14 05:42:35;;;;;;;8.57;3.60;;;15.40;99.90;;;;;;5098590;28;20212;-61
2021/06/14 05:45:03;;;;;;;10.15;3.53;;;15.40;99.90;;;;;;5114883;28;20172;-63
2021/06/14 05:47:29;;;;;;;8.52;3.50;;;15.30;99.90;;;;;;5111552;28;20172;-61
2021/06/14 05:49:55;;;;;;;9.95;3.70;;;15.20;99.90;;;;;;5110818;28;20184;-61
2021/06/14 05:52:21;;;;;;;10.93;4.47;;;15.20;99.90;;;;;;5111990;28;20578;-61
2021/06/14 05:54:47;;;;;;;7.07;4.10;;;15.20;99.90;;;;;;5111574;28;20180;-62
2021/06/14 05:57:13;;;;;;;9.30;4.57;;;15.20;99.90;;;;;;5111660;28;20196;-62
2021/06/14 05:59:39;;;;;;;12.82;5.03;;;15.20;99.90;;;;;;5111979;28;20172;-62
2021/06/14 06:02:06;;;;;;;13.25;4.95;;;15.30;99.90;;;;;;5112138;28;20195;-62
2021/06/14 06:04:32;;;;;;;13.02;5.32;;;15.30;99.90;;;;;;5111632;28;20180;-62
2021/06/14 06:06:59;;;;;;;13.18;6.40;;;15.40;99.90;;;;;;5110798;28;20744;-61
2021/06/14 06:09:25;;;;;;;16.67;6.10;;;15.40;99.90;;;;;;5112410;28;20189;-61
2021/06/14 06:11:51;;;;;;;19.42;6.70;;;15.50;99.90;;;;;;5111300;28;20410;-62
2021/06/14 06:14:17;;;;;;;18.17;6.88;;;15.60;99.90;;;;;;5111405;28;20382;-62
2021/06/14 06:16:43;;;;;;;16.52;6.25;;;15.70;99.90;;;;;;5111040;28;20551;-62
2021/06/14 06:19:09;;;;;;;15.20;6.63;;;15.60;99.90;;;;;;5116530;28;20161;-63
2021/06/14 06:21:36;;;;;;;13.20;5.82;;;15.60;99.90;;;;;;5116256;28;20176;-62
2021/06/14 06:24:02;;;;;;;15.73;5.72;;;15.70;99.90;;;;;;5116186;28;20621;-62
2021/06/14 06:26:28;;;;;;;12.00;5.57;;;15.80;99.90;;;;;;5115985;27;20172;-60
2021/06/14 06:28:54;;;;;;;21.20;5.97;;;15.70;99.90;;;;;;5133558;27;20176;-60
2021/06/14 06:31:20;;;;;;;13.05;6.32;;;15.60;99.90;;;;;;5136915;27;20512;-62
2021/06/14 06:33:46;;;;;;;14.00;6.50;;;15.70;99.90;;;;;;5130714;27;20181;-61
2021/06/14 06:36:12;;;;;;;19.00;6.28;;;15.80;99.90;;;;;;5111309;28;20200;-62
2021/06/14 06:38:39;;;;;;;14.90;5.80;;;15.90;99.90;;;;;;5110291;28;20197;-62
2021/06/14 06:41:05;;;;;;;15.48;5.82;;;16.00;99.90;;;;;;5120458;27;20219;-62
2021/06/14 06:43:31;;;;;;;14.70;5.75;;;16.10;99.90;;;;;;5135637;27;20179;-61
2021/06/14 06:45:57;;;;;;;13.02;5.90;;;16.00;99.90;;;;;;5135653;27;20172;-61
2021/06/14 06:48:23;;;;;;;20.67;6.32;;;15.90;99.90;;;;;;5134140;27;20385;-61
2021/06/14 06:50:49;;;;;;;19.48;6.50;;;16.00;99.90;;;;;;5115416;27;20408;-61
2021/06/14 06:53:17;;;;;;;15.45;5.55;;;16.10;99.90;;;;;;5135767;27;20195;-61
2021/06/14 06:55:43;;;;;;;10.68;5.20;;;16.10;99.90;;;;;;5134574;27;20180;-62
2021/06/14 06:58:10;;;;;;;15.40;5.57;;;16.10;99.90;;;;;;5116231;27;20187;-62
2021/06/14 07:00:36;;;;;;;14.80;5.25;;;16.10;99.90;;;;;;5135241;27;20250;-62
2021/06/14 07:03:03;;;;;;;20.65;5.40;;;16.20;99.90;;;;;;5135605;27;20183;-62
2021/06/14 07:05:29;;;;;;;15.93;5.03;;;16.30;99.90;;;;;;5134986;27;20639;-62
2021/06/14 07:07:56;;;;;;;13.55;5.00;;;16.40;99.90;;;;;;5134577;27;20407;-62
2021/06/14 07:10:22;;;;;;;15.07;4.90;;;16.40;99.90;;;;;;5133338;27;20378;-62
2021/06/14 07:12:48;;;;;;;26.05;5.00;;;16.60;99.90;;;;;;5133870;27;20761;-62
2021/06/14 07:15:14;;;;;;;12.60;3.83;;;16.70;99.90;;;;;;5135339;27;20176;-62
2021/06/14 07:17:42;;;;;;;15.00;4.22;;;16.70;99.90;;;;;;5139153;27;20175;-62
2021/06/14 07:20:10;;;;;;;9.00;4.30;;;16.80;99.90;;;;;;5148129;27;20187;-61
2021/06/14 07:22:36;;;;;;;14.90;3.42;;;16.90;99.90;;;;;;5116688;27;20175;-61
2021/06/14 07:25:04;;;;;;;12.98;3.38;;;17.10;99.90;;;;;;5116574;27;20191;-62
2021/06/14 07:27:32;;;;;;;;;;;17.40;99.90;;;;;;5134670;27;20035;-62
2021/06/14 07:29:58;;;;;;;;;;;17.50;99.90;;;;;;5134812;27;19922;-62
2021/06/14 07:32:24;;;;;;;;;;;17.40;99.90;;;;;;5135398;27;19926;-68
2021/06/14 07:34:50;;;;;;;;;;;17.30;99.90;;;;;;5115923;27;19907;-64
2021/06/14 07:37:18;;;;;;;;;;;17.20;99.90;;;;;;5134964;27;19908;-68
2021/06/14 07:39:44;;;;;;;;;;;17.30;99.90;;;;;;5131168;27;19907;-65
2021/06/14 07:42:10;;;;;;;;;;;17.20;99.90;;;;;;5134571;27;20372;-65
2021/06/14 07:44:36;;;;;;;;;;;17.20;99.90;;;;;;5134851;27;19926;-65
2021/06/14 07:47:02;;;;;;;;;;;17.30;99.90;;;;;;5126845;27;19926;-66
2021/06/14 07:49:28;;;;;;;;;;;17.00;99.90;;;;;;5140390;27;19907;-67
2021/06/14 07:51:54;;;;;;;;;;;16.90;99.90;;;;;;5143351;27;19919;-67
2021/06/14 07:54:20;;;;;;;;;;;16.90;99.90;;;;;;5137558;27;19912;-66
2021/06/14 07:56:47;;;;;;;;;;;16.80;99.90;;;;;;5143138;27;19918;-65
2021/06/14 07:59:13;;;;;;;;;;;16.80;99.90;;;;;;5141859;27;19934;-66
2021/06/14 08:01:39;;;;;;;;;;;16.80;99.90;;;;;;5139793;27;20434;-64
2021/06/14 08:04:05;;;;;;;;;;;16.70;99.90;;;;;;5125231;27;19915;-64
2021/06/14 08:06:31;;;;;;;;;;;16.60;99.90;;;;;;5142665;27;20477;-66
2021/06/14 08:08:58;;;;;;;;;;;16.60;99.90;;;;;;5140379;27;19918;-69
2021/06/14 08:11:24;;;;;;;;;;;16.50;99.90;;;;;;5140707;27;19908;-64
2021/06/14 08:13:50;;;;;;;;;;;16.50;99.90;;;;;;5118116;27;19916;-65
2021/06/14 08:16:16;;;;;;;;;;;16.40;99.90;;;;;;5134526;27;19911;-64
2021/06/14 08:18:46;;;;;;;;;;;16.60;99.90;;;;;;5134461;27;20390;-65
2021/06/14 08:26:23;;;;;;;;;;;16.80;99.90;;;;;;5141300;27;19922;-68
2021/06/14 08:28:49;;;;;;;;;;;16.80;99.90;;;;;;5134201;27;19907;-63
2021/06/14 08:31:15;;;;;;;;;;;16.90;99.90;;;;;;5134198;27;19912;-65
2021/06/14 08:33:41;;;;;;;;;;;16.90;99.90;;;;;;5130542;27;19942;-66
2021/06/14 08:36:07;;;;;;;;;;;17.00;99.90;;;;;;5128053;27;20287;-65
2021/06/14 08:38:33;;;;;;;;;;;17.10;99.90;;;;;;5125563;27;19911;-66
2021/06/14 08:40:59;;;;;;;;;;;17.00;99.90;;;;;;5135127;27;19919;-65
2021/06/14 08:43:25;;;;;;;;;;;16.90;99.90;;;;;;5142361;27;19911;-65
2021/06/14 08:45:51;;;;;;;;;;;17.00;99.90;;;;;;5119913;27;19911;-64
2021/06/14 08:48:17;;;;;;;;;;;16.90;99.90;;;;;;5135234;27;20382;-64
2021/06/14 08:50:43;;;;;;;;;;;16.80;99.90;;;;;;5135553;27;19915;-68
2021/06/14 08:53:09;;;;;;;;;;;16.80;99.90;;;;;;5140027;27;19915;-67
2021/06/14 08:55:35;;;;;;;;;;;16.80;99.90;;;;;;5133111;27;19926;-68
2021/06/14 08:58:01;;;;;;;;;;;16.90;99.90;;;;;;5138272;27;19956;-64
2021/06/14 09:00:28;;;;;;;;;;;16.90;99.90;;;;;;5133202;27;19912;-67
2021/06/14 09:02:54;;;;;;;;;;;16.90;99.90;;;;;;5133612;27;19918;-66
2021/06/14 09:05:20;;;;;;;;;;;16.80;99.90;;;;;;5133114;27;19907;-65
2021/06/14 09:07:49;;;;;;;;;;;16.70;99.90;;;;;;5129435;27;19912;-67
2021/06/14 09:10:21;;;;;;;;;;;16.70;99.90;;;;;;5134081;27;20252;-65
2021/06/14 09:12:47;;;;;;;;;;;16.60;99.90;;;;;;5133569;27;20315;-66
2021/06/14 09:15:13;;;;;;;;;;;16.60;99.90;;;;;;5133776;27;19915;-65
2021/06/14 09:17:39;;;;;;;;;;;16.60;99.90;;;;;;5133384;27;19955;-63
2021/06/14 09:20:12;;;;;;;;;;;16.60;99.90;;;;;;5132541;27;19915;-65
2021/06/14 09:22:38;;;;;;;;;;;16.60;99.90;;;;;;5133315;27;19914;-64
2021/06/14 09:25:05;;;;;;;;;;;16.60;99.90;;;;;;5132910;27;19911;-62
2021/06/14 09:27:32;;;;;;;;;;;16.50;99.90;;;;;;5133535;27;19914;-63
2021/06/14 09:30:09;;;;;;;;;;;16.50;99.90;;;;;;5114316;28;19911;-64
2021/06/14 09:32:36;;;;;;;;;;;16.60;99.90;;;;;;5133139;28;19920;-64
2021/06/14 09:35:02;;;;;;;;;;;16.60;99.90;;;;;;5133360;28;20395;-65
2021/06/14 09:37:27;;;;;;;;;;;16.60;99.90;;;;;;5134460;27;19903;-64
2021/06/14 09:39:53;;;;;;;;;;;16.60;99.90;;;;;;5129356;27;19907;-64
2021/06/14 09:42:20;;;;;;;;;;;16.60;99.90;;;;;;5103256;28;19916;-64
2021/06/14 09:44:47;;;;;;;;;;;16.50;99.90;;;;;;5132502;28;19926;-67
2021/06/14 09:47:13;;;;;;;;;;;16.60;99.90;;;;;;5133003;28;19907;-69
2021/06/14 09:49:39;;;;;;;;;;;16.60;99.90;;;;;;5112997;27;19908;-66
2021/06/14 09:52:05;;;;;;;;;;;16.70;99.90;;;;;;5130900;27;20268;-66
2021/06/14 09:54:32;;;;;;;;;;;16.70;99.90;;;;;;5123726;27;19907;-69
2021/06/14 09:56:59;;;;;;;;;;;16.70;99.90;;;;;;5134119;27;19907;-65
2021/06/14 09:59:28;;;;;;;;;;;16.70;99.90;;;;;;5133427;27;20279;-63
2021/06/14 10:02:04;;;;;;;;;;;16.80;99.90;;;;;;5135469;27;19911;-66
2021/06/14 10:04:31;;;;;;;;;;;16.80;99.90;;;;;;5131714;27;19919;-64
2021/06/14 10:07:00;;;;;;;;;;;16.80;99.90;;;;;;5133047;27;19911;-67
2021/06/14 10:09:30;;;;;;;;;;;16.80;99.90;;;;;;5139446;27;19918;-65
2021/06/14 10:11:55;;;;;;;;;;;16.80;99.90;;;;;;5117744;27;19907;-64
2021/06/14 10:14:22;;;;;;;;;;;16.80;99.90;;;;;;5139351;27;19918;-65
2021/06/14 10:16:48;;;;;;;;;;;16.80;99.90;;;;;;5139238;27;19911;-65
2021/06/14 10:19:15;;;;;;;;;;;16.80;99.90;;;;;;5136379;27;19912;-65
2021/06/14 10:21:42;;;;;;;;;;;16.80;99.90;;;;;;5135978;27;19915;-64
2021/06/14 10:24:11;;;;;;;;;;;16.90;99.90;;;;;;5135603;27;19911;-63
2021/06/14 10:26:39;;;;;;;;;;;16.90;99.90;;;;;;5136380;27;19911;-66
2021/06/14 10:29:06;;;;;;;;;;;16.80;99.90;;;;;;5117258;27;19908;-68
2021/06/14 10:31:32;;;;;;;;;;;16.80;99.90;;;;;;5118266;27;19915;-64
2021/06/14 10:33:58;;;;;;;;;;;16.80;99.90;;;;;;5143472;27;20382;-65
2021/06/14 10:36:25;;;;;;;;;;;16.80;99.90;;;;;;5118566;27;19914;-65
2021/06/14 10:38:51;;;;;;;;;;;16.80;99.90;;;;;;5120318;27;19907;-64
2021/06/14 10:41:18;;;;;;;;;;;16.70;99.90;;;;;;5136608;27;19923;-66
2021/06/14 10:43:44;;;;;;;;;;;16.80;99.90;;;;;;5140074;27;19926;-63
2021/06/14 10:46:10;;;;;;;;;;;16.70;99.90;;;;;;5134562;27;20328;-64
2021/06/14 10:48:36;;;;;;;;;;;16.80;99.90;;;;;;5123368;27;19915;-64
2021/06/14 10:51:03;;;;;;;;;;;16.80;99.90;;;;;;5127884;27;19929;-63
2021/06/14 10:53:30;;;;;;;;;;;16.90;99.90;;;;;;5142459;27;19915;-66
2021/06/14 10:55:57;;;;;;;;;;;16.80;99.90;;;;;;5142623;27;19907;-67
2021/06/14 10:58:23;;;;;;;;;;;16.80;99.90;;;;;;5135680;27;20367;-67
2021/06/14 11:00:58;;;;;;;;;;;16.80;99.90;;;;;;5134523;27;19908;-65
2021/06/14 11:03:35;;;;;;;;;;;16.90;99.90;;;;;;5127407;27;19911;-66
2021/06/14 11:06:01;;;;;;;;;;;17.00;99.90;;;;;;5134725;27;19915;-63
2021/06/14 11:08:29;;;;;;;;;;;17.00;99.90;;;;;;5117020;27;19911;-66
2021/06/14 11:10:57;;;;;;;;;;;17.00;99.90;;;;;;5136140;27;19911;-67
2021/06/14 11:13:23;;;;;;;;;;;17.10;99.90;;;;;;5126514;27;19922;-65
2021/06/14 11:15:51;;;;;;;;;;;17.10;99.90;;;;;;5134995;27;20398;-65
2021/06/14 11:18:35;;;;;;;;;;;17.20;99.90;;;;;;5135953;27;19907;-65
2021/06/14 11:21:14;;;;;;;;;;;17.20;99.90;;;;;;5114565;27;19914;-67
2021/06/14 11:23:41;;;;;;;;;;;17.20;99.90;;;;;;5116885;27;20269;-68
2021/06/14 11:26:09;;;;;;;;;;;17.20;99.90;;;;;;5134707;27;19907;-64
2021/06/14 11:28:41;;;;;;;;;;;17.30;99.90;;;;;;5135157;27;19911;-65
2021/06/14 11:31:14;;;;;;;;;;;17.40;99.90;;;;;;5135739;27;19911;-65
2021/06/14 11:33:40;;;;;;;;;;;17.50;99.90;;;;;;5135611;27;19919;-65
2021/06/14 11:36:12;;;;;;;;;;;17.50;99.90;;;;;;5134468;27;20394;-64
2021/06/14 11:38:38;;;;;;;;;;;17.50;99.90;;;;;;5134538;27;19934;-65
2021/06/14 11:41:04;;;;;;;;;;;17.90;99.90;;;;;;5135390;27;20368;-66
2021/06/14 11:43:30;;;;;;;;;;;17.70;99.90;;;;;;5134720;27;19911;-66
2021/06/14 11:45:57;;;;;;;;;;;17.60;99.90;;;;;;5126509;27;19919;-65
2021/06/14 11:48:24;;;;;;;;;;;17.60;99.90;;;;;;5134514;27;19912;-65
2021/06/14 11:50:51;;;;;;;;;;;17.60;99.90;;;;;;5133311;27;20276;-68
2021/06/14 11:53:17;;;;;;;;;;;17.50;99.90;;;;;;5116390;27;20360;-66
2021/06/14 11:55:44;;;;;;;;;;;17.70;99.90;;;;;;5134712;27;19927;-67
2021/06/14 11:58:10;;;;;;;;;;;17.70;99.90;;;;;;5115885;27;19914;-66
2021/06/14 12:00:37;;;;;;;;;;;17.80;99.90;;;;;;5116564;27;19910;-68
2021/06/14 12:03:23;;;;;;;;;;;17.80;99.90;;;;;;5134263;27;19915;-65
2021/06/14 12:05:49;;;;;;;;;;;17.90;99.90;;;;;;5127802;27;19914;-67
2021/06/14 12:08:16;;;;;;;;;;;17.90;99.90;;;;;;5133323;27;19907;-65
2021/06/14 12:10:42;;;;;;;;;;;18.10;99.90;;;;;;5134156;27;20432;-64
2021/06/14 12:13:12;;;;;;;;;;;18.30;99.90;;;;;;5134339;27;19919;-63
2021/06/14 12:15:38;;;;;;;;;;;18.50;99.90;;;;;;5115492;27;20264;-64
2021/06/14 12:18:04;;;;;;;;;;;18.70;99.90;;;;;;5133288;27;19922;-69
2021/06/14 12:20:31;;;;;;;;;;;18.70;99.90;;;;;;5133834;27;20368;-66
2021/06/14 12:23:10;;;;;;;;;;;18.80;99.90;;;;;;5134236;27;19912;-65
2021/06/14 12:25:46;;;;;;;;;;;18.90;99.90;;;;;;5133778;27;19907;-67
2021/06/14 12:28:13;;;;;;;;;;;18.90;99.90;;;;;;5134494;27;19911;-65
2021/06/14 12:30:40;;;;;;;;;;;19.00;99.90;;;;;;5134260;27;19931;-65
2021/06/14 12:33:06;;;;;;;;;;;19.30;99.90;;;;;;5134447;27;21978;-67
2021/06/14 12:35:39;;;;;;;;;;;19.30;99.90;;;;;;5105249;27;784447;-64
2021/06/14 12:38:09;;;;;;;;;;;19.30;99.90;;;;;;5131051;28;19912;-69
2021/06/14 12:40:39;;;;;;;;;;;19.10;99.90;;;;;;5129634;28;19922;-65
2021/06/14 12:43:06;;;;;;;;;;;19.10;99.90;;;;;;5130793;28;19919;-66
2021/06/14 12:45:33;;;;;;;;;;;19.20;99.90;;;;;;5110725;28;20296;-65
2021/06/14 12:47:59;;;;;;;;;;;19.20;99.90;;;;;;5129029;28;19919;-65
2021/06/14 12:50:28;;;;;;;;;;;19.40;99.90;;;;;;5130236;28;19918;-65
2021/06/14 12:52:54;;;;;;;;;;;19.70;99.90;;;;;;5129983;28;20044;-63
2021/06/14 12:55:24;;;;;;;;;;;19.50;99.90;;;;;;5129532;28;20427;-67
2021/06/14 12:57:50;;;;;;;;;;;19.50;99.90;;;;;;5129954;28;19907;-63
2021/06/14 13:00:18;;;;;;;54.90;6.60;;;19.00;99.90;;;;;;5126476;28;19915;-65
2021/06/14 13:02:51;;;;;;;10.15;4.50;;;18.80;99.90;;;;;;5129378;28;20172;-66
2021/06/14 13:05:18;;;;;;;42.80;6.60;;;18.80;99.90;;;;;;5110150;28;20155;-66
2021/06/14 13:08:19;;;;;;;12.20;4.45;;;18.90;99.90;;;;;;5111391;28;20209;-65
2021/06/14 13:10:50;;;;;;;38.80;7.40;;;18.80;99.90;;;;;;5127769;28;20208;-70
2021/06/14 13:13:18;;;;;;;13.30;5.30;;;18.80;99.90;;;;;;5126605;28;20166;-70
2021/06/14 13:15:45;;;;;;;13.10;4.55;;;18.40;99.90;;;;;;5129318;28;20103;-69
2021/06/14 13:18:13;;;;;;;10.40;5.00;;;18.30;99.90;;;;;;5129808;28;20511;-66
2021/06/14 13:20:39;;;;;;;53.85;8.20;;;18.10;99.90;;;;;;5111037;28;25058;-66
2021/06/14 13:23:09;;;;;;;;;;;18.10;99.90;;;;;;5109858;28;20184;-65
2021/06/14 13:25:39;;;;;;;;;;;18.00;99.90;;;;;;5127364;28;19918;-65
2021/06/14 13:28:06;;;;;;;;;;;18.00;99.90;;;;;;5112558;28;19909;-65
2021/06/14 13:30:36;;;;;;;;;;;18.00;99.90;;;;;;5129975;28;19908;-68
2021/06/14 13:33:04;;;;;;;;;;;17.90;99.90;;;;;;5127939;28;19915;-65
2021/06/14 13:35:30;;;;;;;;;;;17.90;99.90;;;;;;5129110;27;20621;-65
2021/06/14 13:37:57;;;;;;;;;;;17.90;99.90;;;;;;5129047;28;19919;-65
2021/06/14 13:40:26;;;;;;;;;;;17.90;99.90;;;;;;5129417;28;19914;-65
2021/06/14 13:42:56;;;;;;;;;;;17.80;99.90;;;;;;5127998;28;19935;-68
2021/06/14 13:45:28;;;;;;;;;;;17.60;99.90;;;;;;5106363;28;20349;-67
2021/06/14 13:48:02;;;;;;;;;;;17.50;99.90;;;;;;5096042;28;19904;-69
2021/06/14 13:50:31;;;;;;;18.57;7.93;;;17.30;99.90;;;;;;5113531;28;19918;-68
2021/06/14 13:53:08;;;;;;;20.73;6.53;;;17.20;99.90;;;;;;5113738;28;20663;-70
2021/06/14 13:55:34;;;;;;;;;;;17.10;99.90;;;;;;5094950;28;20204;-65
2021/06/14 13:58:00;;;;;;;;;;;17.10;99.90;;;;;;5114404;28;20756;-66